BAW4214 LIMC-EDDH
Flight info
| Callsign | BAW4214 |
|---|---|
| Flight time | 1h 17m |
| Altitude | 38000 |
| Route | PEPAG2Q PEPAG DCT ABESI N851 UTAVO DCT ROLSA/N0472F390 DCT LOKTA DCT TEDGO DCT HAREM DCT LOHRE DCT MASEK DCT ELNAT/N0472F400 P605 NOLGO NOLGO3P |
| Aircraft | B77L/H-SDE1E2E3FGHIJ2J3J4J5M1RWXY/LB1D1 |
Departure
| Time | 2026-04-23 19:31 |
|---|---|
| Airport | Milan Malpensa International Airport (LIMC) |
Arrival
| Time | 2026-04-23 20:49 |
|---|---|
| Airport | Hamburg Helmut Schmidt Airport (EDDH) |
| Time | Latitude | Longitude | Altitude | Speed | Heading |
|---|---|---|---|---|---|
| 2026-04-23 19:02 | 45.62238 | 8.71848 | 732 ft | 0 kts | 170° |
| 2026-04-23 19:21 | 45.62260 | 8.71843 | 733 ft | 2 kts | 170° |
| 2026-04-23 19:21 | 45.62275 | 8.71839 | 732 ft | 2 kts | 170° |
| 2026-04-23 19:22 | 45.62291 | 8.71835 | 733 ft | 2 kts | 171° |
| 2026-04-23 19:22 | 45.62307 | 8.71832 | 732 ft | 2 kts | 168° |
| 2026-04-23 19:22 | 45.62332 | 8.71805 | 731 ft | 2 kts | 99° |
| 2026-04-23 19:23 | 45.62330 | 8.71791 | 731 ft | 2 kts | 54° |
| 2026-04-23 19:23 | 45.62321 | 8.71772 | 733 ft | 2 kts | 54° |
| 2026-04-23 19:23 | 45.62311 | 8.71753 | 731 ft | 2 kts | 54° |
| 2026-04-23 19:24 | 45.62310 | 8.71755 | 736 ft | 2 kts | 67° |
| 2026-04-23 19:24 | 45.62315 | 8.71782 | 737 ft | 0 kts | 66° |
| 2026-04-23 19:25 | 45.62335 | 8.71877 | 736 ft | 12 kts | 82° |
| 2026-04-23 19:25 | 45.62368 | 8.72134 | 737 ft | 10 kts | 79° |
| 2026-04-23 19:26 | 45.62250 | 8.72255 | 732 ft | 20 kts | 171° |
| 2026-04-23 19:26 | 45.62117 | 8.72289 | 730 ft | 23 kts | 170° |
| 2026-04-23 19:27 | 45.61894 | 8.72354 | 726 ft | 13 kts | 169° |
| 2026-04-23 19:27 | 45.61542 | 8.72448 | 721 ft | 17 kts | 169° |
| 2026-04-23 19:28 | 45.61427 | 8.72598 | 717 ft | 0 kts | 84° |
| 2026-04-23 19:28 | 45.61433 | 8.72636 | 719 ft | 7 kts | 74° |
| 2026-04-23 19:29 | 45.61446 | 8.72697 | 720 ft | 7 kts | 68° |
| 2026-04-23 19:29 | 45.61518 | 8.72710 | 720 ft | 0 kts | 348° |
| 2026-04-23 19:30 | 45.61533 | 8.72706 | 719 ft | 0 kts | 349° |
| 2026-04-23 19:31 | 45.61605 | 8.72687 | 722 ft | 53 kts | 349° |
| 2026-04-23 19:31 | 45.62395 | 8.72466 | 745 ft | 174 kts | 348° |
| 2026-04-23 19:31 | 45.63713 | 8.72091 | 1675 ft | 198 kts | 348° |
| 2026-04-23 19:32 | 45.65042 | 8.71785 | 2888 ft | 192 kts | 354° |
| 2026-04-23 19:32 | 45.66353 | 8.72102 | 3539 ft | 206 kts | 24° |
| 2026-04-23 19:32 | 45.67654 | 8.73276 | 3866 ft | 238 kts | 35° |
| 2026-04-23 19:32 | 45.69064 | 8.74801 | 4333 ft | 263 kts | 37° |
| 2026-04-23 19:33 | 45.70524 | 8.76423 | 5403 ft | 266 kts | 37° |
| 2026-04-23 19:33 | 45.71977 | 8.78041 | 6557 ft | 267 kts | 37° |
| 2026-04-23 19:33 | 45.75002 | 8.81392 | 8414 ft | 273 kts | 37° |
| 2026-04-23 19:34 | 45.76515 | 8.83060 | 9463 ft | 276 kts | 37° |
| 2026-04-23 19:34 | 45.78051 | 8.84746 | 10387 ft | 281 kts | 37° |
| 2026-04-23 19:34 | 45.81412 | 8.88433 | 11201 ft | 334 kts | 37° |
| 2026-04-23 19:35 | 45.83340 | 8.90545 | 11562 ft | 360 kts | 38° |
| 2026-04-23 19:35 | 45.85362 | 8.92762 | 12515 ft | 370 kts | 38° |
| 2026-04-23 19:35 | 45.87422 | 8.95022 | 13667 ft | 374 kts | 38° |
| 2026-04-23 19:35 | 45.89501 | 8.97305 | 14781 ft | 378 kts | 38° |
| 2026-04-23 19:36 | 45.91573 | 8.99581 | 15808 ft | 382 kts | 38° |
| 2026-04-23 19:36 | 45.93697 | 9.01916 | 16821 ft | 386 kts | 38° |
| 2026-04-23 19:36 | 45.95851 | 9.04240 | 17775 ft | 388 kts | 34° |
| 2026-04-23 19:36 | 45.98321 | 9.05946 | 18570 ft | 399 kts | 18° |
| 2026-04-23 19:37 | 46.01078 | 9.06657 | 19405 ft | 407 kts | 5° |
| 2026-04-23 19:37 | 46.03922 | 9.06429 | 20207 ft | 413 kts | 355° |
| 2026-04-23 19:37 | 46.06800 | 9.05882 | 20949 ft | 418 kts | 355° |
| 2026-04-23 19:37 | 46.09696 | 9.05338 | 21805 ft | 422 kts | 355° |
| 2026-04-23 19:38 | 46.12623 | 9.04837 | 22583 ft | 426 kts | 356° |
| 2026-04-23 19:38 | 46.15546 | 9.04364 | 23373 ft | 430 kts | 356° |
| 2026-04-23 19:38 | 46.18543 | 9.03918 | 24050 ft | 435 kts | 357° |
| 2026-04-23 19:38 | 46.21573 | 9.03514 | 24685 ft | 439 kts | 358° |
| 2026-04-23 19:39 | 46.24636 | 9.03117 | 25328 ft | 444 kts | 358° |
| 2026-04-23 19:39 | 46.27731 | 9.02710 | 25981 ft | 450 kts | 358° |
| 2026-04-23 19:39 | 46.30876 | 9.02294 | 26680 ft | 454 kts | 358° |
| 2026-04-23 19:39 | 46.34033 | 9.01868 | 27327 ft | 458 kts | 358° |
| 2026-04-23 19:40 | 46.37225 | 9.01436 | 27873 ft | 463 kts | 358° |
| 2026-04-23 19:40 | 46.40454 | 9.00992 | 28460 ft | 467 kts | 358° |
| 2026-04-23 19:40 | 46.42962 | 9.00648 | 28923 ft | 470 kts | 359° |
| 2026-04-23 19:40 | 46.45474 | 9.00308 | 29401 ft | 472 kts | 359° |
| 2026-04-23 19:41 | 46.48287 | 8.99930 | 29919 ft | 475 kts | 359° |
| 2026-04-23 19:41 | 46.51300 | 8.99528 | 30354 ft | 478 kts | 359° |
| 2026-04-23 19:41 | 46.53535 | 8.99236 | 30622 ft | 479 kts | 359° |
| 2026-04-23 19:41 | 46.57940 | 8.98639 | 31344 ft | 477 kts | 359° |
| 2026-04-23 19:42 | 46.61239 | 8.98188 | 31979 ft | 475 kts | 359° |
| 2026-04-23 19:42 | 46.64509 | 8.97740 | 32627 ft | 473 kts | 359° |
| 2026-04-23 19:42 | 46.66699 | 8.97441 | 33064 ft | 471 kts | 359° |
| 2026-04-23 19:42 | 46.71058 | 8.96847 | 33946 ft | 469 kts | 360° |
| 2026-04-23 19:43 | 46.74300 | 8.96413 | 34422 ft | 469 kts | 359° |
| 2026-04-23 19:43 | 46.77565 | 8.95971 | 34663 ft | 474 kts | 359° |
| 2026-04-23 19:43 | 46.80852 | 8.95522 | 35072 ft | 474 kts | 359° |
| 2026-04-23 19:43 | 46.84119 | 8.95074 | 35655 ft | 470 kts | 359° |
| 2026-04-23 19:44 | 46.86276 | 8.94779 | 36034 ft | 468 kts | 358° |
| 2026-04-23 19:44 | 46.89518 | 8.94337 | 36484 ft | 467 kts | 358° |
| 2026-04-23 19:44 | 46.92749 | 8.93896 | 36885 ft | 467 kts | 358° |
| 2026-04-23 19:44 | 46.95985 | 8.93453 | 37303 ft | 466 kts | 358° |
| 2026-04-23 19:45 | 46.99209 | 8.93012 | 37762 ft | 464 kts | 357° |
| 2026-04-23 19:45 | 47.02423 | 8.92571 | 38176 ft | 464 kts | 357° |
| 2026-04-23 19:45 | 47.06696 | 8.91984 | 38275 ft | 469 kts | 357° |
| 2026-04-23 19:46 | 47.12146 | 8.91232 | 38284 ft | 468 kts | 357° |
| 2026-04-23 19:46 | 47.18561 | 8.90345 | 38252 ft | 464 kts | 357° |
| 2026-04-23 19:47 | 47.24961 | 8.89473 | 38262 ft | 461 kts | 359° |
| 2026-04-23 19:47 | 47.31344 | 8.89768 | 38278 ft | 457 kts | 9° |
| 2026-04-23 19:48 | 47.37562 | 8.91587 | 38280 ft | 456 kts | 15° |
| 2026-04-23 19:48 | 47.43766 | 8.93718 | 38278 ft | 458 kts | 15° |
| 2026-04-23 19:49 | 47.49997 | 8.95836 | 38277 ft | 460 kts | 15° |
| 2026-04-23 19:49 | 47.55375 | 8.97637 | 38279 ft | 461 kts | 15° |
| 2026-04-23 19:50 | 47.61650 | 8.99727 | 38284 ft | 462 kts | 15° |
| 2026-04-23 19:50 | 47.67932 | 9.01822 | 38283 ft | 463 kts | 15° |
| 2026-04-23 19:51 | 47.74163 | 9.03909 | 38285 ft | 462 kts | 15° |
| 2026-04-23 19:51 | 47.80442 | 9.06018 | 38293 ft | 461 kts | 15° |
| 2026-04-23 19:52 | 47.86703 | 9.08126 | 38285 ft | 461 kts | 16° |
| 2026-04-23 19:52 | 47.92953 | 9.10235 | 38288 ft | 459 kts | 16° |
| 2026-04-23 19:53 | 47.99185 | 9.12343 | 38295 ft | 458 kts | 16° |
| 2026-04-23 19:53 | 48.05405 | 9.14454 | 38296 ft | 458 kts | 16° |
| 2026-04-23 19:54 | 48.11612 | 9.16565 | 38289 ft | 458 kts | 16° |
| 2026-04-23 19:54 | 48.17851 | 9.18558 | 38300 ft | 460 kts | 11° |
| 2026-04-23 19:55 | 48.24185 | 9.19647 | 38294 ft | 462 kts | 9° |
| 2026-04-23 19:55 | 48.30588 | 9.20648 | 38278 ft | 463 kts | 9° |
| 2026-04-23 19:56 | 48.36995 | 9.21698 | 38284 ft | 463 kts | 9° |
| 2026-04-23 19:56 | 48.43415 | 9.22779 | 38288 ft | 464 kts | 9° |
| 2026-04-23 19:57 | 48.49831 | 9.23869 | 38278 ft | 464 kts | 9° |
| 2026-04-23 19:57 | 48.56259 | 9.24958 | 38267 ft | 464 kts | 9° |
| 2026-04-23 19:58 | 48.62689 | 9.26048 | 38267 ft | 464 kts | 9° |
| 2026-04-23 19:58 | 48.69090 | 9.27042 | 38265 ft | 465 kts | 9° |
| 2026-04-23 19:59 | 48.75530 | 9.28003 | 38265 ft | 464 kts | 9° |
| 2026-04-23 19:59 | 48.81956 | 9.28970 | 38269 ft | 463 kts | 9° |
| 2026-04-23 20:00 | 48.88362 | 9.29952 | 38266 ft | 463 kts | 9° |
| 2026-04-23 20:00 | 48.94780 | 9.30941 | 38271 ft | 463 kts | 9° |
| 2026-04-23 20:01 | 49.01173 | 9.31926 | 38267 ft | 462 kts | 9° |
| 2026-04-23 20:01 | 49.07537 | 9.32910 | 38267 ft | 462 kts | 9° |
| 2026-04-23 20:02 | 49.13924 | 9.33899 | 38266 ft | 461 kts | 9° |
| 2026-04-23 20:02 | 49.20318 | 9.34892 | 38263 ft | 461 kts | 9° |
| 2026-04-23 20:03 | 49.26703 | 9.35887 | 38260 ft | 461 kts | 9° |
| 2026-04-23 20:03 | 49.33091 | 9.36884 | 38260 ft | 462 kts | 9° |
| 2026-04-23 20:04 | 49.39496 | 9.37887 | 38271 ft | 463 kts | 9° |
| 2026-04-23 20:04 | 49.45912 | 9.38894 | 38262 ft | 464 kts | 9° |
| 2026-04-23 20:05 | 49.52342 | 9.39906 | 38270 ft | 465 kts | 9° |
| 2026-04-23 20:05 | 49.58746 | 9.40917 | 38261 ft | 465 kts | 9° |
| 2026-04-23 20:06 | 49.65175 | 9.41934 | 38267 ft | 464 kts | 9° |
| 2026-04-23 20:06 | 49.71599 | 9.42957 | 38256 ft | 463 kts | 9° |
| 2026-04-23 20:07 | 49.78007 | 9.43981 | 38273 ft | 462 kts | 9° |
| 2026-04-23 20:07 | 49.84405 | 9.45007 | 38268 ft | 461 kts | 9° |
| 2026-04-23 20:08 | 49.90784 | 9.46031 | 38270 ft | 461 kts | 9° |
| 2026-04-23 20:08 | 49.97163 | 9.47058 | 38271 ft | 461 kts | 9° |
| 2026-04-23 20:09 | 50.03549 | 9.48090 | 38265 ft | 461 kts | 8° |
| 2026-04-23 20:09 | 50.09890 | 9.49123 | 38268 ft | 461 kts | 9° |
| 2026-04-23 20:10 | 50.15236 | 9.50018 | 38277 ft | 462 kts | 9° |
| 2026-04-23 20:10 | 50.22669 | 9.51270 | 38279 ft | 463 kts | 9° |
| 2026-04-23 20:11 | 50.29071 | 9.52349 | 38273 ft | 463 kts | 8° |
| 2026-04-23 20:11 | 50.35486 | 9.53431 | 38273 ft | 463 kts | 8° |
| 2026-04-23 20:12 | 50.41910 | 9.54516 | 38279 ft | 464 kts | 8° |
| 2026-04-23 20:12 | 50.48300 | 9.55600 | 38274 ft | 464 kts | 8° |
| 2026-04-23 20:13 | 50.54720 | 9.56692 | 38271 ft | 463 kts | 8° |
| 2026-04-23 20:13 | 50.61124 | 9.57783 | 38268 ft | 463 kts | 8° |
| 2026-04-23 20:14 | 50.67542 | 9.58880 | 38264 ft | 463 kts | 8° |
| 2026-04-23 20:14 | 50.73929 | 9.59980 | 38263 ft | 462 kts | 8° |
| 2026-04-23 20:15 | 50.80317 | 9.61202 | 38265 ft | 461 kts | 9° |
| 2026-04-23 20:15 | 50.86698 | 9.62470 | 38264 ft | 461 kts | 9° |
| 2026-04-23 20:16 | 50.93023 | 9.63715 | 38268 ft | 461 kts | 9° |
| 2026-04-23 20:16 | 50.99405 | 9.64966 | 38264 ft | 461 kts | 8° |
| 2026-04-23 20:17 | 51.05771 | 9.66215 | 38267 ft | 461 kts | 8° |
| 2026-04-23 20:17 | 51.12148 | 9.67470 | 38263 ft | 461 kts | 8° |
| 2026-04-23 20:18 | 51.18523 | 9.68728 | 38258 ft | 461 kts | 8° |
| 2026-04-23 20:18 | 51.24896 | 9.69886 | 38265 ft | 461 kts | 7° |
| 2026-04-23 20:19 | 51.31293 | 9.70877 | 38268 ft | 461 kts | 7° |
| 2026-04-23 20:19 | 51.37668 | 9.71883 | 38266 ft | 461 kts | 7° |
| 2026-04-23 20:20 | 51.44067 | 9.72922 | 38258 ft | 460 kts | 7° |
| 2026-04-23 20:20 | 51.50395 | 9.74005 | 38261 ft | 460 kts | 8° |
| 2026-04-23 20:21 | 51.56752 | 9.75255 | 38265 ft | 459 kts | 8° |
| 2026-04-23 20:21 | 51.63105 | 9.76484 | 38262 ft | 459 kts | 8° |
| 2026-04-23 20:22 | 51.69443 | 9.77689 | 38265 ft | 459 kts | 7° |
| 2026-04-23 20:22 | 51.75757 | 9.78888 | 38261 ft | 459 kts | 7° |
| 2026-04-23 20:23 | 51.82105 | 9.80078 | 38267 ft | 459 kts | 7° |
| 2026-04-23 20:23 | 51.88447 | 9.81277 | 38256 ft | 459 kts | 7° |
| 2026-04-23 20:24 | 51.94787 | 9.82505 | 38269 ft | 458 kts | 7° |
| 2026-04-23 20:24 | 51.97937 | 9.83118 | 38166 ft | 453 kts | 7° |
| 2026-04-23 20:24 | 52.01036 | 9.83721 | 37764 ft | 446 kts | 7° |
| 2026-04-23 20:24 | 52.04063 | 9.84310 | 36887 ft | 449 kts | 7° |
| 2026-04-23 20:25 | 52.07195 | 9.84921 | 35835 ft | 456 kts | 7° |
| 2026-04-23 20:25 | 52.10378 | 9.85543 | 34714 ft | 464 kts | 7° |
| 2026-04-23 20:25 | 52.13604 | 9.86174 | 33637 ft | 468 kts | 7° |
| 2026-04-23 20:25 | 52.16845 | 9.86807 | 32470 ft | 472 kts | 7° |
| 2026-04-23 20:26 | 52.20087 | 9.87442 | 31265 ft | 478 kts | 7° |
| 2026-04-23 20:26 | 52.23429 | 9.88097 | 30281 ft | 477 kts | 7° |
| 2026-04-23 20:26 | 52.26701 | 9.88748 | 29388 ft | 472 kts | 7° |
| 2026-04-23 20:26 | 52.29899 | 9.89423 | 28554 ft | 466 kts | 8° |
| 2026-04-23 20:27 | 52.33095 | 9.90119 | 27697 ft | 462 kts | 8° |
| 2026-04-23 20:27 | 52.36263 | 9.90815 | 27030 ft | 455 kts | 7° |
| 2026-04-23 20:27 | 52.39370 | 9.91495 | 26364 ft | 448 kts | 7° |
| 2026-04-23 20:27 | 52.42443 | 9.92163 | 25732 ft | 442 kts | 7° |
| 2026-04-23 20:28 | 52.45490 | 9.92824 | 25471 ft | 443 kts | 7° |
| 2026-04-23 20:28 | 52.48565 | 9.93489 | 25306 ft | 443 kts | 7° |
| 2026-04-23 20:28 | 52.51607 | 9.94148 | 25263 ft | 440 kts | 7° |
| 2026-04-23 20:28 | 52.54632 | 9.94805 | 25180 ft | 435 kts | 7° |
| 2026-04-23 20:29 | 52.57629 | 9.95458 | 24601 ft | 432 kts | 7° |
| 2026-04-23 20:29 | 52.60597 | 9.96110 | 23973 ft | 428 kts | 7° |
| 2026-04-23 20:29 | 52.63506 | 9.96761 | 23263 ft | 425 kts | 7° |
| 2026-04-23 20:29 | 52.66415 | 9.97419 | 22549 ft | 421 kts | 7° |
| 2026-04-23 20:30 | 52.69310 | 9.98080 | 21913 ft | 416 kts | 7° |
| 2026-04-23 20:30 | 52.74989 | 9.99388 | 20601 ft | 408 kts | 7° |
| 2026-04-23 20:30 | 52.77790 | 10.00037 | 19993 ft | 404 kts | 7° |
| 2026-04-23 20:31 | 52.79634 | 10.00454 | 19594 ft | 402 kts | 6° |
| 2026-04-23 20:31 | 52.82402 | 10.01011 | 18992 ft | 399 kts | 6° |
| 2026-04-23 20:31 | 52.85153 | 10.01565 | 18407 ft | 396 kts | 6° |
| 2026-04-23 20:31 | 52.87869 | 10.02148 | 17787 ft | 391 kts | 6° |
| 2026-04-23 20:32 | 52.90554 | 10.02745 | 17189 ft | 387 kts | 7° |
| 2026-04-23 20:32 | 52.93210 | 10.03341 | 16593 ft | 383 kts | 7° |
| 2026-04-23 20:32 | 52.95842 | 10.03931 | 16092 ft | 376 kts | 7° |
| 2026-04-23 20:32 | 52.98393 | 10.04503 | 15501 ft | 373 kts | 7° |
| 2026-04-23 20:33 | 53.00958 | 10.05077 | 14885 ft | 371 kts | 7° |
| 2026-04-23 20:33 | 53.03512 | 10.05650 | 14308 ft | 368 kts | 7° |
| 2026-04-23 20:33 | 53.06046 | 10.06218 | 13716 ft | 364 kts | 7° |
| 2026-04-23 20:33 | 53.08541 | 10.06779 | 13119 ft | 360 kts | 6° |
| 2026-04-23 20:34 | 53.11007 | 10.07335 | 12539 ft | 355 kts | 6° |
| 2026-04-23 20:34 | 53.13438 | 10.07883 | 11936 ft | 352 kts | 6° |
| 2026-04-23 20:34 | 53.15861 | 10.08429 | 11491 ft | 349 kts | 6° |
| 2026-04-23 20:34 | 53.18259 | 10.08969 | 11318 ft | 354 kts | 6° |
| 2026-04-23 20:35 | 53.20698 | 10.09520 | 11239 ft | 349 kts | 6° |
| 2026-04-23 20:35 | 53.23089 | 10.10062 | 11236 ft | 346 kts | 6° |
| 2026-04-23 20:35 | 53.25494 | 10.10606 | 11233 ft | 347 kts | 6° |
| 2026-04-23 20:35 | 53.27889 | 10.11152 | 11232 ft | 347 kts | 7° |
| 2026-04-23 20:36 | 53.30235 | 10.12152 | 11235 ft | 352 kts | 19° |
| 2026-04-23 20:36 | 53.32481 | 10.13854 | 11235 ft | 354 kts | 23° |
| 2026-04-23 20:36 | 53.34678 | 10.15638 | 11097 ft | 354 kts | 24° |
| 2026-04-23 20:36 | 53.36892 | 10.17478 | 10626 ft | 354 kts | 24° |
| 2026-04-23 20:37 | 53.39063 | 10.19297 | 10441 ft | 341 kts | 24° |
| 2026-04-23 20:37 | 53.41144 | 10.21050 | 10102 ft | 330 kts | 24° |
| 2026-04-23 20:37 | 53.43179 | 10.22773 | 9574 ft | 326 kts | 24° |
| 2026-04-23 20:37 | 53.45186 | 10.24480 | 9072 ft | 320 kts | 24° |
| 2026-04-23 20:38 | 53.47146 | 10.26159 | 8678 ft | 313 kts | 24° |
| 2026-04-23 20:38 | 53.49048 | 10.27797 | 8298 ft | 305 kts | 24° |
| 2026-04-23 20:38 | 53.50836 | 10.29348 | 7934 ft | 299 kts | 24° |
| 2026-04-23 20:38 | 53.52666 | 10.30945 | 7558 ft | 293 kts | 24° |
| 2026-04-23 20:39 | 53.54464 | 10.32521 | 7185 ft | 290 kts | 24° |
| 2026-04-23 20:39 | 53.56246 | 10.34098 | 6826 ft | 289 kts | 24° |
| 2026-04-23 20:39 | 53.58019 | 10.35687 | 6457 ft | 287 kts | 24° |
| 2026-04-23 20:39 | 53.59773 | 10.37272 | 6078 ft | 285 kts | 24° |
| 2026-04-23 20:40 | 53.61521 | 10.38856 | 5708 ft | 284 kts | 24° |
| 2026-04-23 20:40 | 53.63250 | 10.40424 | 5335 ft | 282 kts | 24° |
| 2026-04-23 20:40 | 53.64981 | 10.41993 | 5253 ft | 286 kts | 24° |
| 2026-04-23 20:40 | 53.66741 | 10.43581 | 5254 ft | 286 kts | 24° |
| 2026-04-23 20:41 | 53.68515 | 10.44900 | 5236 ft | 269 kts | 9° |
| 2026-04-23 20:41 | 53.70291 | 10.44855 | 5238 ft | 244 kts | 343° |
| 2026-04-23 20:41 | 53.71781 | 10.43889 | 5226 ft | 224 kts | 336° |
| 2026-04-23 20:41 | 53.73177 | 10.42782 | 5079 ft | 213 kts | 335° |
| 2026-04-23 20:42 | 53.74494 | 10.41705 | 5017 ft | 208 kts | 334° |
| 2026-04-23 20:42 | 53.75792 | 10.40636 | 4976 ft | 207 kts | 334° |
| 2026-04-23 20:42 | 53.77063 | 10.39580 | 4978 ft | 207 kts | 334° |
| 2026-04-23 20:42 | 53.78360 | 10.38498 | 4980 ft | 208 kts | 334° |
| 2026-04-23 20:43 | 53.79576 | 10.37201 | 4961 ft | 207 kts | 315° |
| 2026-04-23 20:43 | 53.80203 | 10.34989 | 4993 ft | 220 kts | 283° |
| 2026-04-23 20:43 | 53.80069 | 10.32314 | 5015 ft | 235 kts | 264° |
| 2026-04-23 20:43 | 53.79627 | 10.29628 | 4874 ft | 243 kts | 251° |
| 2026-04-23 20:44 | 53.78518 | 10.27375 | 4590 ft | 257 kts | 221° |
| 2026-04-23 20:44 | 53.76916 | 10.26052 | 4285 ft | 253 kts | 207° |
| 2026-04-23 20:44 | 53.75529 | 10.24499 | 3966 ft | 230 kts | 238° |
| 2026-04-23 20:44 | 53.74622 | 10.22382 | 3649 ft | 220 kts | 240° |
| 2026-04-23 20:45 | 53.73647 | 10.20372 | 3349 ft | 219 kts | 238° |
| 2026-04-23 20:45 | 53.72682 | 10.18443 | 3128 ft | 209 kts | 238° |
| 2026-04-23 20:45 | 53.71788 | 10.16635 | 3022 ft | 193 kts | 239° |
| 2026-04-23 20:45 | 53.70958 | 10.14943 | 2961 ft | 183 kts | 240° |
| 2026-04-23 20:46 | 53.70141 | 10.13268 | 2764 ft | 187 kts | 240° |
| 2026-04-23 20:46 | 53.69315 | 10.11581 | 2385 ft | 191 kts | 239° |
| 2026-04-23 20:46 | 53.68471 | 10.09874 | 2070 ft | 179 kts | 240° |
| 2026-04-23 20:46 | 53.67741 | 10.08399 | 1997 ft | 155 kts | 242° |
| 2026-04-23 20:47 | 53.67078 | 10.07029 | 1646 ft | 148 kts | 241° |
| 2026-04-23 20:47 | 53.66434 | 10.05720 | 1172 ft | 143 kts | 239° |
| 2026-04-23 20:47 | 53.65811 | 10.04506 | 823 ft | 130 kts | 238° |
| 2026-04-23 20:47 | 53.65257 | 10.03346 | 651 ft | 133 kts | 239° |
| 2026-04-23 20:48 | 53.64662 | 10.02105 | 463 ft | 132 kts | 235° |
| 2026-04-23 20:48 | 53.64072 | 10.00957 | 256 ft | 130 kts | 236° |
| 2026-04-23 20:48 | 53.63491 | 9.99754 | 64 ft | 133 kts | 233° |
| 2026-04-23 20:48 | 53.62955 | 9.98640 | 48 ft | 110 kts | 232° |
| 2026-04-23 20:49 | 53.62626 | 9.97986 | 47 ft | 51 kts | 230° |
| 2026-04-23 20:49 | 53.62497 | 9.97791 | 45 ft | 9 kts | 183° |
| 2026-04-23 20:49 | 53.62462 | 9.97811 | 45 ft | 0 kts | 149° |
| 2026-04-23 20:49 | 53.62461 | 9.97811 | 45 ft | 0 kts | 149° |
| 2026-04-23 20:50 | 53.62461 | 9.97812 | 45 ft | 1 kts | 149° |
| 2026-04-23 20:50 | 53.62452 | 9.97825 | 45 ft | 2 kts | 139° |
| 2026-04-23 20:50 | 53.62431 | 9.97919 | 45 ft | 17 kts | 92° |
| 2026-04-23 20:50 | 53.62441 | 9.98007 | 46 ft | 4 kts | 66° |
| 2026-04-23 20:51 | 53.62490 | 9.98143 | 46 ft | 23 kts | 52° |
| 2026-04-23 20:51 | 53.62561 | 9.98289 | 46 ft | 12 kts | 50° |
| 2026-04-23 20:51 | 53.62614 | 9.98399 | 47 ft | 12 kts | 51° |
| 2026-04-23 20:51 | 53.62669 | 9.98509 | 47 ft | 13 kts | 50° |
| 2026-04-23 20:52 | 53.62738 | 9.98651 | 47 ft | 22 kts | 50° |
| 2026-04-23 20:52 | 53.62852 | 9.98878 | 48 ft | 20 kts | 51° |
| 2026-04-23 20:52 | 53.62951 | 9.99080 | 48 ft | 22 kts | 50° |
| 2026-04-23 20:52 | 53.63014 | 9.99208 | 49 ft | 13 kts | 51° |
| 2026-04-23 20:53 | 53.63057 | 9.99303 | 49 ft | 8 kts | 53° |
| 2026-04-23 20:53 | 53.63073 | 9.99342 | 49 ft | 0 kts | 54° |
| 2026-04-23 20:54 | 53.63074 | 9.99343 | 49 ft | 1 kts | 54° |
| 2026-04-23 20:54 | 53.63094 | 9.99392 | 48 ft | 10 kts | 56° |
| 2026-04-23 20:55 | 53.63152 | 9.99530 | 48 ft | 19 kts | 53° |
| 2026-04-23 20:55 | 53.63234 | 9.99691 | 47 ft | 18 kts | 48° |
| 2026-04-23 20:55 | 53.63304 | 9.99814 | 49 ft | 13 kts | 49° |
| 2026-04-23 20:55 | 53.63368 | 9.99942 | 50 ft | 11 kts | 50° |
| 2026-04-23 20:56 | 53.63410 | 10.00036 | 50 ft | 11 kts | 58° |
| 2026-04-23 20:56 | 53.63408 | 10.00166 | 49 ft | 14 kts | 120° |
| 2026-04-23 20:56 | 53.63326 | 10.00231 | 50 ft | 8 kts | 171° |
| 2026-04-23 20:56 | 53.63251 | 10.00241 | 50 ft | 14 kts | 176° |
| 2026-04-23 20:57 | 53.63213 | 10.00245 | 46 ft | 2 kts | 176° |
| 2026-04-23 20:57 | 53.63212 | 10.00245 | 47 ft | 0 kts | 176° |
| 2026-04-23 20:58 | 53.63204 | 10.00253 | 48 ft | 2 kts | 149° |
| 2026-04-23 20:59 | 53.63196 | 10.00306 | 50 ft | 10 kts | 89° |
| 2026-04-23 20:59 | 53.63196 | 10.00335 | 50 ft | 1 kts | 89° |
| 2026-04-23 20:59 | 53.63197 | 10.00358 | 50 ft | 3 kts | 89° |
| 2026-04-23 20:59 | 53.63197 | 10.00364 | 50 ft | 0 kts | 89° |
| 2026-04-23 21:00 | 53.63197 | 10.00367 | 50 ft | 0 kts | 89° |